Time;durP1;ratioP1;P1;durP2;ratioP2;P2;SDS_P1;SDS_P2;PMS_P1;PMS_P2;Temp;Humidity;BMP_temperature;BMP_pressure;BME280_temperature;BME280_humidity;BME280_pressure;Samples;Min_cycle;Max_cycle;Signal;HPM_P1;HPM_P2
2023/03/25 00:00:38;;;;;;;2.97;1.60;;;;;;;;;;5084792;28;20197;-87
2023/03/25 00:03:05;;;;;;;4.53;1.87;;;;;;;;;;5091034;28;20250;-86
2023/03/25 00:05:32;;;;;;;3.30;1.70;;;;;;;;;;5079561;28;20692;-87
2023/03/25 00:08:00;;;;;;;3.87;1.50;;;;;;;;;;5079920;28;20240;-86
2023/03/25 00:10:27;;;;;;;2.00;1.50;;;;;;;;;;5076671;28;20186;-86
2023/03/25 00:12:54;;;;;;;1.20;1.20;;;;;;;;;;5075587;28;20245;-86
2023/03/25 00:15:22;;;;;;;1.93;1.20;;;;;;;;;;5091624;28;20223;-86
2023/03/25 00:17:51;;;;;;;1.60;1.47;;;;;;;;;;5078333;28;20653;-86
2023/03/25 00:20:18;;;;;;;2.30;1.50;;;;;;;;;;5065350;28;20201;-87
2023/03/25 00:22:45;;;;;;;1.60;1.50;;;;;;;;;;5138810;22;20228;-88
2023/03/25 00:25:15;;;;;;;1.97;1.67;;;;;;;;;;5075339;28;20233;-87
2023/03/25 00:27:44;;;;;;;2.03;1.50;;;;;;;;;;5074563;28;20645;-87
2023/03/25 00:30:12;;;;;;;1.27;1.27;;;;;;;;;;5073629;28;20308;-87
2023/03/25 00:32:39;;;;;;;1.10;1.10;;;;;;;;;;5073492;28;20252;-87
2023/03/25 00:35:08;;;;;;;1.77;1.23;;;;;;;;;;5074312;28;20205;-87
2023/03/25 00:37:35;;;;;;;2.03;1.27;;;;;;;;;;5073965;28;20233;-87
2023/03/25 00:40:04;;;;;;;1.23;1.23;;;;;;;;;;5087438;28;20225;-87
2023/03/25 00:42:33;;;;;;;1.27;1.27;;;;;;;;;;5073216;28;20727;-87
2023/03/25 00:45:00;;;;;;;1.67;1.57;;;;;;;;;;5073899;28;20233;-87
2023/03/25 00:47:27;;;;;;;1.93;1.10;;;;;;;;;;5073210;28;20233;-87
2023/03/25 00:49:55;;;;;;;1.07;1.07;;;;;;;;;;5073983;28;20233;-87
2023/03/25 00:52:23;;;;;;;1.53;1.10;;;;;;;;;;5087288;28;20243;-87
2023/03/25 00:54:51;;;;;;;2.17;1.00;;;;;;;;;;5094279;28;20208;-87
2023/03/25 00:57:18;;;;;;;1.17;0.90;;;;;;;;;;5093285;28;20786;-88
2023/03/25 00:59:45;;;;;;;2.00;1.00;;;;;;;;;;5093426;28;20220;-87
2023/03/25 01:02:12;;;;;;;1.70;1.10;;;;;;;;;;5093316;28;20240;-87
2023/03/25 01:04:40;;;;;;;1.63;1.23;;;;;;;;;;5094347;28;20209;-87
2023/03/25 01:07:07;;;;;;;0.90;0.90;;;;;;;;;;5086044;28;20615;-88
2023/03/25 01:09:36;;;;;;;4.57;1.30;;;;;;;;;;5088281;28;20229;-87
2023/03/25 01:12:03;;;;;;;1.10;1.10;;;;;;;;;;5082966;28;20239;-88
2023/03/25 01:14:30;;;;;;;1.23;1.13;;;;;;;;;;5093431;28;20197;-88
2023/03/25 01:16:59;;;;;;;1.47;1.30;;;;;;;;;;5093144;28;20228;-88
2023/03/25 01:19:26;;;;;;;1.37;1.13;;;;;;;;;;5078391;28;20225;-88
2023/03/25 01:21:53;;;;;;;4.43;1.50;;;;;;;;;;5089678;28;20228;-88
2023/03/25 01:24:20;;;;;;;1.50;1.40;;;;;;;;;;5077308;28;20200;-88
2023/03/25 01:26:49;;;;;;;2.50;1.50;;;;;;;;;;5085430;28;20244;-88
2023/03/25 01:29:17;;;;;;;1.43;1.33;;;;;;;;;;5073534;28;20220;-87
2023/03/25 01:31:44;;;;;;;2.63;1.40;;;;;;;;;;5082659;28;20239;-88
2023/03/25 01:34:12;;;;;;;2.60;1.70;;;;;;;;;;5092542;28;20232;-87
2023/03/25 01:36:40;;;;;;;1.87;1.33;;;;;;;;;;5077427;28;20205;-87
2023/03/25 01:39:09;;;;;;;2.67;1.70;;;;;;;;;;5074321;28;20233;-87
2023/03/25 01:41:37;;;;;;;2.63;1.63;;;;;;;;;;5090230;28;20211;-88
2023/03/25 01:44:09;;;;;;;2.50;1.47;;;;;;;;;;5093850;28;20214;-87
2023/03/25 01:46:38;;;;;;;2.23;1.90;;;;;;;;;;5092961;28;20228;-86
2023/03/25 01:49:07;;;;;;;4.70;2.10;;;;;;;;;;5094008;28;20228;-86
2023/03/25 01:51:35;;;;;;;4.27;1.80;;;;;;;;;;5093481;28;20679;-86
2023/03/25 01:54:02;;;;;;;1.30;1.20;;;;;;;;;;5094078;28;20711;-87
2023/03/25 01:56:32;;;;;;;3.47;1.70;;;;;;;;;;5094305;28;20220;-87
2023/03/25 01:58:59;;;;;;;2.23;1.60;;;;;;;;;;5054593;28;20229;-87
2023/03/25 02:01:30;;;;;;;2.47;1.50;;;;;;;;;;5054299;28;20213;-87
2023/03/25 02:04:01;;;;;;;1.43;1.23;;;;;;;;;;5065631;28;20189;-87
2023/03/25 02:06:31;;;;;;;6.40;1.70;;;;;;;;;;5097138;28;20209;-87
2023/03/25 02:08:59;;;;;;;4.53;1.70;;;;;;;;;;5097751;28;20208;-87
2023/03/25 02:11:28;;;;;;;2.40;2.00;;;;;;;;;;5097374;28;20198;-87
2023/03/25 02:17:04;;;;;;;2.20;1.57;;;;;;;;;;5097377;28;20220;-87
2023/03/25 02:19:53;;;;;;;1.83;1.40;;;;;;;;;;5097666;28;20239;-87
2023/03/25 02:22:37;;;;;;;2.40;1.80;;;;;;;;;;5097099;28;20217;-87
2023/03/25 02:25:18;;;;;;;2.23;1.50;;;;;;;;;;5096522;28;20232;-87
2023/03/25 02:27:53;;;;;;;2.60;1.67;;;;;;;;;;5092672;28;20256;-87
2023/03/25 02:30:36;;;;;;;3.53;2.13;;;;;;;;;;5092815;28;20204;-88
2023/03/25 02:33:15;;;;;;;4.40;1.60;;;;;;;;;;5095345;28;20239;-87
2023/03/25 02:35:48;;;;;;;2.60;1.50;;;;;;;;;;5112704;28;20208;-87
2023/03/25 02:38:26;;;;;;;1.67;1.30;;;;;;;;;;5108005;28;20220;-88
2023/03/25 02:40:57;;;;;;;1.40;1.30;;;;;;;;;;5098577;28;20226;-87
2023/03/25 02:43:27;;;;;;;4.13;1.70;;;;;;;;;;5097599;28;20557;-88
2023/03/25 02:45:56;;;;;;;2.63;1.90;;;;;;;;;;5080294;28;20212;-87
2023/03/25 02:48:26;;;;;;;1.60;1.50;;;;;;;;;;5072644;28;20244;-88
2023/03/25 02:50:55;;;;;;;1.30;1.20;;;;;;;;;;5075945;28;20202;-87
2023/03/25 02:53:27;;;;;;;1.40;1.30;;;;;;;;;;5090686;28;20240;-87
2023/03/25 02:55:58;;;;;;;1.40;1.30;;;;;;;;;;5081813;28;20198;-87
2023/03/25 02:58:26;;;;;;;1.23;1.23;;;;;;;;;;5071796;28;20253;-88
2023/03/25 03:00:57;;;;;;;1.37;1.23;;;;;;;;;;5087791;28;20291;-87
2023/03/25 03:03:24;;;;;;;2.13;1.20;;;;;;;;;;5074927;28;20229;-87
2023/03/25 03:05:53;;;;;;;1.27;1.13;;;;;;;;;;5089359;28;20292;-87
2023/03/25 03:08:27;;;;;;;1.10;1.10;;;;;;;;;;5070798;28;20731;-87
2023/03/25 03:10:58;;;;;;;1.10;1.10;;;;;;;;;;5071582;28;20194;-87
2023/03/25 03:13:29;;;;;;;1.50;1.40;;;;;;;;;;5070678;28;20241;-88
2023/03/25 03:16:00;;;;;;;1.00;1.00;;;;;;;;;;5071380;28;20540;-87
2023/03/25 03:18:33;;;;;;;2.73;1.50;;;;;;;;;;5071076;28;20716;-86
2023/03/25 03:21:07;;;;;;;1.80;1.70;;;;;;;;;;5074112;28;20276;-88
2023/03/25 03:23:38;;;;;;;6.70;5.70;;;;;;;;;;5073511;28;20232;-86
2023/03/25 03:26:08;;;;;;;1.57;1.47;;;;;;;;;;5073563;28;20194;-87
2023/03/25 03:28:40;;;;;;;2.20;1.87;;;;;;;;;;5070918;28;20237;-86
2023/03/25 03:31:10;;;;;;;1.43;1.33;;;;;;;;;;5071179;28;20212;-87
2023/03/25 03:33:40;;;;;;;1.20;1.20;;;;;;;;;;5071144;28;20320;-87
2023/03/25 03:36:08;;;;;;;1.20;1.20;;;;;;;;;;5071139;28;20213;-87
2023/03/25 03:38:39;;;;;;;1.60;1.40;;;;;;;;;;5070884;28;20236;-87
2023/03/25 03:41:08;;;;;;;1.23;1.23;;;;;;;;;;5087811;28;20231;-87
2023/03/25 03:43:38;;;;;;;1.50;1.43;;;;;;;;;;5090722;28;20233;-86
2023/03/25 03:46:07;;;;;;;1.50;1.40;;;;;;;;;;5087591;28;20201;-86
2023/03/25 03:48:39;;;;;;;1.63;1.53;;;;;;;;;;5079321;28;20239;-86
2023/03/25 03:51:08;;;;;;;2.10;1.43;;;;;;;;;;5078500;28;20221;-87
2023/03/25 03:53:38;;;;;;;1.57;1.47;;;;;;;;;;5072056;28;20229;-87
2023/03/25 03:56:08;;;;;;;1.30;1.20;;;;;;;;;;5071164;28;20205;-86
2023/03/25 03:58:36;;;;;;;1.40;1.40;;;;;;;;;;5084949;28;20228;-87
2023/03/25 04:01:08;;;;;;;1.40;1.30;;;;;;;;;;5084201;28;20198;-85
2023/03/25 04:03:39;;;;;;;4.17;1.63;;;;;;;;;;5085732;28;20232;-86
2023/03/25 04:06:12;;;;;;;1.50;1.50;;;;;;;;;;5093954;28;20588;-87
2023/03/25 04:08:50;;;;;;;2.93;1.60;;;;;;;;;;5076422;28;20243;-87
2023/03/25 04:11:21;;;;;;;1.30;1.30;;;;;;;;;;5080486;28;20208;-86
2023/03/25 04:13:50;;;;;;;2.57;1.53;;;;;;;;;;5084121;28;20666;-87
2023/03/25 04:16:17;;;;;;;2.93;2.40;;;;;;;;;;5081409;28;20227;-85
2023/03/25 04:18:46;;;;;;;4.07;1.70;;;;;;;;;;5094836;28;20220;-87
2023/03/25 04:21:14;;;;;;;4.77;1.67;;;;;;;;;;5093838;28;20212;-87
2023/03/25 04:23:44;;;;;;;4.07;1.60;;;;;;;;;;5093076;28;20224;-86
2023/03/25 04:26:12;;;;;;;1.70;1.60;;;;;;;;;;5074790;28;20205;-87
2023/03/25 04:28:40;;;;;;;1.60;1.50;;;;;;;;;;5074226;28;20233;-86
2023/03/25 04:31:14;;;;;;;1.80;1.70;;;;;;;;;;5073903;28;20197;-87
2023/03/25 04:33:41;;;;;;;3.47;2.07;;;;;;;;;;5079823;28;20228;-87
2023/03/25 04:36:09;;;;;;;3.83;1.50;;;;;;;;;;5086392;28;20664;-87
2023/03/25 04:38:36;;;;;;;3.20;1.77;;;;;;;;;;5087653;28;20228;-87
2023/03/25 04:41:05;;;;;;;3.43;1.80;;;;;;;;;;5088632;28;20263;-87
2023/03/25 04:43:33;;;;;;;1.97;1.77;;;;;;;;;;5073245;28;20225;-86
2023/03/25 04:46:01;;;;;;;1.30;1.27;;;;;;;;;;5074632;28;20198;-87
2023/03/25 04:48:29;;;;;;;1.90;1.70;;;;;;;;;;5073681;28;20728;-86
2023/03/25 04:50:57;;;;;;;3.20;1.87;;;;;;;;;;5074074;28;20205;-86
2023/03/25 04:53:24;;;;;;;5.43;2.10;;;;;;;;;;5088475;28;20233;-87
2023/03/25 04:55:52;;;;;;;3.50;1.93;;;;;;;;;;5090339;28;20216;-87
2023/03/25 04:58:21;;;;;;;2.97;1.50;;;;;;;;;;5076461;28;20575;-87
2023/03/25 05:00:49;;;;;;;7.33;1.63;;;;;;;;;;5093676;28;20267;-87
2023/03/25 05:03:16;;;;;;;1.37;1.30;;;;;;;;;;5093021;28;20294;-88
2023/03/25 05:05:43;;;;;;;3.47;1.77;;;;;;;;;;5091629;28;20741;-87
2023/03/25 05:08:11;;;;;;;3.30;1.60;;;;;;;;;;5100345;22;20573;-84
2023/03/25 05:10:38;;;;;;;2.30;2.10;;;;;;;;;;5068911;28;20620;-83
2023/03/25 05:13:06;;;;;;;2.20;1.60;;;;;;;;;;5072131;28;20307;-82
2023/03/25 05:15:38;;;;;;;1.70;1.60;;;;;;;;;;5072820;28;20669;-81
2023/03/25 05:18:05;;;;;;;2.73;1.83;;;;;;;;;;5072386;28;20308;-83
2023/03/25 05:20:34;;;;;;;1.70;1.60;;;;;;;;;;5072886;28;20240;-82
2023/03/25 05:23:01;;;;;;;1.80;1.70;;;;;;;;;;5072329;28;20233;-82
2023/03/25 05:25:28;;;;;;;2.27;1.50;;;;;;;;;;5072770;28;20197;-82
2023/03/25 05:27:55;;;;;;;4.30;1.80;;;;;;;;;;5072153;28;20225;-82
2023/03/25 05:30:22;;;;;;;1.70;1.47;;;;;;;;;;5072914;28;20227;-81
2023/03/25 05:32:52;;;;;;;1.57;1.47;;;;;;;;;;5072021;28;20237;-82
2023/03/25 05:35:19;;;;;;;4.00;1.77;;;;;;;;;;5072770;28;20206;-81
2023/03/25 05:37:49;;;;;;;2.37;1.90;;;;;;;;;;5072135;28;20653;-81
2023/03/25 05:40:16;;;;;;;1.73;1.60;;;;;;;;;;5072833;28;20523;-81
2023/03/25 05:42:47;;;;;;;3.63;1.40;;;;;;;;;;5071532;28;20609;-82
2023/03/25 05:45:15;;;;;;;1.87;1.70;;;;;;;;;;5072123;28;20209;-81
2023/03/25 05:47:43;;;;;;;1.97;1.60;;;;;;;;;;5071898;28;20259;-82
2023/03/25 05:50:13;;;;;;;2.27;1.80;;;;;;;;;;5069636;28;20237;-81
2023/03/25 05:52:41;;;;;;;2.00;1.57;;;;;;;;;;5051921;28;20234;-80
2023/03/25 05:55:11;;;;;;;3.23;1.90;;;;;;;;;;5064712;28;20201;-80
2023/03/25 05:57:38;;;;;;;3.47;1.93;;;;;;;;;;5056173;28;20225;-80
2023/03/25 06:00:06;;;;;;;4.40;2.07;;;;;;;;;;5052204;28;20279;-80
2023/03/25 06:02:34;;;;;;;3.43;2.20;;;;;;;;;;5051913;28;20226;-80
2023/03/25 06:05:01;;;;;;;2.30;1.70;;;;;;;;;;5052373;28;20198;-80
2023/03/25 06:07:29;;;;;;;2.50;1.90;;;;;;;;;;5052511;28;20732;-80
2023/03/25 06:09:57;;;;;;;2.73;1.27;;;;;;;;;;5062252;28;20229;-80
2023/03/25 06:12:26;;;;;;;4.20;1.87;;;;;;;;;;5070983;28;20237;-80
2023/03/25 06:14:53;;;;;;;2.17;1.87;;;;;;;;;;5071316;28;20202;-80
2023/03/25 06:17:21;;;;;;;4.67;1.90;;;;;;;;;;5071260;28;20253;-80
2023/03/25 06:19:48;;;;;;;2.97;1.90;;;;;;;;;;5071616;28;20729;-80
2023/03/25 06:22:15;;;;;;;1.50;1.40;;;;;;;;;;5070751;28;20347;-79
2023/03/25 06:24:45;;;;;;;2.73;2.13;;;;;;;;;;5071078;28;20201;-80
2023/03/25 06:27:13;;;;;;;3.67;1.60;;;;;;;;;;5057512;28;20655;-79
2023/03/25 06:29:41;;;;;;;3.70;2.13;;;;;;;;;;5067479;28;20213;-79
2023/03/25 06:32:09;;;;;;;2.83;2.20;;;;;;;;;;5057654;28;20229;-79
2023/03/25 06:34:36;;;;;;;2.17;1.90;;;;;;;;;;5070977;28;20205;-80
2023/03/25 06:37:03;;;;;;;3.90;1.97;;;;;;;;;;5051341;28;20230;-80
2023/03/25 06:39:30;;;;;;;4.13;1.73;;;;;;;;;;5052417;28;20221;-80
2023/03/25 06:41:59;;;;;;;1.80;1.67;;;;;;;;;;5050865;28;20226;-80
2023/03/25 06:44:26;;;;;;;5.87;2.23;;;;;;;;;;5051417;28;20331;-79
2023/03/25 06:46:53;;;;;;;2.83;2.07;;;;;;;;;;5053418;28;20234;-79
2023/03/25 06:49:20;;;;;;;5.40;1.97;;;;;;;;;;5071259;28;20229;-80
2023/03/25 06:51:47;;;;;;;7.20;1.90;;;;;;;;;;5052084;28;20226;-80
2023/03/25 06:54:15;;;;;;;3.77;2.00;;;;;;;;;;5055666;28;20349;-79
2023/03/25 06:56:42;;;;;;;3.37;1.77;;;;;;;;;;5054047;28;20392;-80
2023/03/25 06:59:10;;;;;;;4.53;1.97;;;;;;;;;;5051126;28;20589;-80
2023/03/25 07:01:37;;;;;;;3.27;2.10;;;;;;;;;;5070333;28;20241;-80
2023/03/25 07:04:04;;;;;;;4.83;2.10;;;;;;;;;;5071387;28;20206;-80
2023/03/25 07:06:31;;;;;;;5.90;2.00;;;;;;;;;;5070740;28;20665;-80
2023/03/25 07:08:59;;;;;;;3.87;1.77;;;;;;;;;;5061328;28;20221;-81
2023/03/25 07:11:27;;;;;;;6.27;2.00;;;;;;;;;;5056263;28;20206;-81
2023/03/25 07:13:54;;;;;;;5.40;1.83;;;;;;;;;;5051397;28;20605;-80
2023/03/25 07:16:22;;;;;;;5.23;2.13;;;;;;;;;;5050579;28;20700;-81
2023/03/25 07:18:50;;;;;;;2.93;1.93;;;;;;;;;;5051320;28;20230;-80
2023/03/25 07:21:17;;;;;;;4.17;1.90;;;;;;;;;;5050455;28;20224;-82
2023/03/25 07:23:44;;;;;;;3.23;1.93;;;;;;;;;;5051157;28;20563;-80
2023/03/25 07:26:12;;;;;;;5.27;1.97;;;;;;;;;;5052965;28;20213;-80
2023/03/25 07:28:39;;;;;;;3.70;2.70;;;;;;;;;;5070683;28;20748;-81
2023/03/25 07:31:07;;;;;;;5.40;2.33;;;;;;;;;;5070905;28;20259;-82
2023/03/25 07:33:36;;;;;;;4.37;2.17;;;;;;;;;;5070698;28;20260;-81
2023/03/25 07:36:03;;;;;;;4.17;2.43;;;;;;;;;;5071337;28;20568;-82
2023/03/25 07:38:30;;;;;;;6.13;2.67;;;;;;;;;;5071462;28;20261;-82
2023/03/25 07:40:57;;;;;;;10.87;2.67;;;;;;;;;;5072503;28;20205;-81
2023/03/25 07:43:24;;;;;;;6.67;2.47;;;;;;;;;;5062953;28;20234;-82
2023/03/25 07:45:51;;;;;;;3.17;2.20;;;;;;;;;;5054538;28;20636;-82
2023/03/25 07:48:19;;;;;;;5.43;2.37;;;;;;;;;;5067724;28;20228;-81
2023/03/25 07:50:48;;;;;;;5.90;2.20;;;;;;;;;;5074548;28;20681;-81
2023/03/25 07:53:15;;;;;;;12.10;3.23;;;;;;;;;;5069373;28;20237;-80
2023/03/25 07:55:44;;;;;;;5.13;2.70;;;;;;;;;;5065093;28;20210;-82
2023/03/25 07:58:11;;;;;;;2.23;1.70;;;;;;;;;;5054215;28;20226;-81
2023/03/25 08:00:38;;;;;;;9.87;2.60;;;;;;;;;;5060740;28;20205;-81
2023/03/25 08:03:05;;;;;;;5.73;1.83;;;;;;;;;;5073872;28;20586;-82
2023/03/25 08:05:32;;;;;;;8.17;2.87;;;;;;;;;;5070650;28;21518;-82
2023/03/25 08:08:01;;;;;;;6.77;2.30;;;;;;;;;;5054637;28;20240;-83
2023/03/25 08:10:28;;;;;;;9.17;3.03;;;;;;;;;;5054193;28;20242;-82
2023/03/25 08:12:55;;;;;;;11.10;2.30;;;;;;;;;;5053573;28;20229;-82
2023/03/25 08:15:23;;;;;;;5.80;2.10;;;;;;;;;;5077624;28;20204;-81
2023/03/25 08:17:50;;;;;;;6.60;1.83;;;;;;;;;;5094087;28;20239;-82
2023/03/25 08:20:18;;;;;;;7.70;2.30;;;;;;;;;;5088340;28;20271;-82
2023/03/25 08:22:45;;;;;;;6.03;2.40;;;;;;;;;;5071950;28;20240;-82
2023/03/25 08:25:14;;;;;;;8.60;2.50;;;;;;;;;;5075066;28;20680;-82
2023/03/25 08:27:41;;;;;;;10.23;2.90;;;;;;;;;;5073636;28;20260;-82
2023/03/25 08:30:09;;;;;;;4.23;2.03;;;;;;;;;;5074290;28;20225;-81
2023/03/25 08:32:37;;;;;;;5.13;2.27;;;;;;;;;;5073590;28;20294;-81
2023/03/25 08:35:05;;;;;;;6.00;2.27;;;;;;;;;;5074175;28;20206;-82
2023/03/25 08:37:34;;;;;;;5.17;2.03;;;;;;;;;;5072664;28;20237;-82
2023/03/25 08:40:01;;;;;;;7.77;2.43;;;;;;;;;;5064605;28;20272;-82
2023/03/25 08:42:29;;;;;;;2.13;1.63;;;;;;;;;;5053011;28;20242;-82
2023/03/25 08:44:57;;;;;;;7.73;2.60;;;;;;;;;;5054575;28;20213;-82
2023/03/25 08:47:24;;;;;;;3.10;2.07;;;;;;;;;;5067285;28;20237;-82
2023/03/25 08:49:51;;;;;;;7.03;2.47;;;;;;;;;;5052945;28;20312;-83
2023/03/25 08:52:18;;;;;;;7.90;2.53;;;;;;;;;;5052911;28;20760;-83
2023/03/25 08:54:45;;;;;;;4.33;2.10;;;;;;;;;;5053616;28;20677;-84
2023/03/25 08:57:12;;;;;;;5.73;2.30;;;;;;;;;;5053037;28;20241;-82
2023/03/25 08:59:41;;;;;;;8.03;1.70;;;;;;;;;;5064667;28;20769;-83
2023/03/25 09:02:08;;;;;;;4.93;2.07;;;;;;;;;;5052822;28;20738;-83
2023/03/25 09:04:37;;;;;;;3.63;2.00;;;;;;;;;;5063399;28;20204;-83
2023/03/25 09:07:04;;;;;;;6.60;2.33;;;;;;;;;;5072612;28;20241;-83
2023/03/25 09:09:31;;;;;;;5.47;2.17;;;;;;;;;;5072442;28;20232;-83
2023/03/25 09:11:58;;;;;;;9.43;2.37;;;;;;;;;;5071482;28;20229;-82
2023/03/25 09:14:25;;;;;;;7.17;2.77;;;;;;;;;;5072480;28;20209;-82
2023/03/25 09:16:54;;;;;;;5.83;2.07;;;;;;;;;;5071276;28;20735;-83
2023/03/25 09:19:21;;;;;;;2.77;1.63;;;;;;;;;;5072890;28;20705;-83
2023/03/25 09:21:48;;;;;;;5.00;1.87;;;;;;;;;;5072382;28;20229;-83
2023/03/25 09:24:15;;;;;;;7.03;2.23;;;;;;;;;;5072840;28;20216;-83
2023/03/25 09:26:42;;;;;;;6.17;1.90;;;;;;;;;;5072619;28;20236;-83
2023/03/25 09:29:09;;;;;;;6.87;2.20;;;;;;;;;;5074372;28;20244;-84
2023/03/25 09:31:36;;;;;;;4.10;2.00;;;;;;;;;;5072301;28;20205;-83
2023/03/25 09:34:05;;;;;;;3.93;1.83;;;;;;;;;;5072710;28;20736;-82
2023/03/25 09:36:32;;;;;;;4.33;1.87;;;;;;;;;;5072683;28;20235;-82
2023/03/25 09:38:59;;;;;;;5.63;1.60;;;;;;;;;;5073457;28;20225;-83
2023/03/25 09:41:31;;;;;;;3.23;1.77;;;;;;;;;;5072478;28;20213;-83
2023/03/25 09:44:01;;;;;;;3.70;2.27;;;;;;;;;;5073677;28;20190;-83
2023/03/25 09:46:29;;;;;;;3.40;1.87;;;;;;;;;;5073301;28;20212;-82
2023/03/25 09:48:56;;;;;;;3.83;2.00;;;;;;;;;;5072709;28;20239;-83
2023/03/25 09:51:27;;;;;;;6.10;2.03;;;;;;;;;;5072109;28;20201;-84
2023/03/25 09:53:56;;;;;;;4.77;2.10;;;;;;;;;;5072504;28;20710;-85
2023/03/25 09:56:26;;;;;;;5.60;2.60;;;;;;;;;;5072011;28;20210;-83
2023/03/25 09:58:55;;;;;;;4.97;1.70;;;;;;;;;;5072534;28;20221;-83
2023/03/25 10:01:31;;;;;;;3.10;1.60;;;;;;;;;;5071321;28;20209;-84
2023/03/25 10:04:03;;;;;;;5.73;2.07;;;;;;;;;;5072238;28;20200;-82
2023/03/25 10:06:33;;;;;;;3.10;1.37;;;;;;;;;;5071709;28;20297;-84
2023/03/25 10:09:02;;;;;;;2.67;1.50;;;;;;;;;;5072023;28;20229;-82
2023/03/25 10:11:33;;;;;;;3.50;1.90;;;;;;;;;;5071439;28;20296;-82
2023/03/25 10:14:04;;;;;;;1.70;1.30;;;;;;;;;;5072256;28;20237;-82
2023/03/25 10:16:36;;;;;;;5.90;2.00;;;;;;;;;;5071689;28;20257;-81
2023/03/25 10:19:13;;;;;;;5.30;1.80;;;;;;;;;;5071860;28;20221;-81
2023/03/25 10:21:45;;;;;;;3.63;1.57;;;;;;;;;;5071343;28;20233;-82
2023/03/25 10:24:17;;;;;;;3.23;1.60;;;;;;;;;;5071903;28;20197;-82
2023/03/25 10:26:46;;;;;;;4.93;1.77;;;;;;;;;;5071530;28;20241;-82
2023/03/25 10:29:14;;;;;;;3.40;1.57;;;;;;;;;;5071643;28;20279;-83
2023/03/25 10:31:47;;;;;;;2.40;1.37;;;;;;;;;;5076006;28;20260;-82
2023/03/25 10:34:16;;;;;;;3.30;1.60;;;;;;;;;;5071751;28;20193;-81
2023/03/25 10:36:48;;;;;;;1.07;1.03;;;;;;;;;;5070999;28;20233;-83
2023/03/25 10:39:18;;;;;;;2.20;1.17;;;;;;;;;;5071619;28;20263;-80
2023/03/25 10:41:48;;;;;;;1.60;1.10;;;;;;;;;;5071042;28;20233;-79
2023/03/25 10:44:15;;;;;;;1.20;1.10;;;;;;;;;;5071473;28;20209;-81
2023/03/25 10:46:46;;;;;;;3.10;1.60;;;;;;;;;;5071245;28;20228;-81
2023/03/25 10:49:15;;;;;;;1.67;1.50;;;;;;;;;;5071464;28;20282;-79
2023/03/25 10:51:42;;;;;;;2.77;1.40;;;;;;;;;;5070837;28;20233;-80
2023/03/25 10:54:12;;;;;;;2.13;1.70;;;;;;;;;;5071748;28;20217;-80
2023/03/25 10:56:41;;;;;;;1.47;1.37;;;;;;;;;;5070960;28;20240;-80
2023/03/25 10:59:14;;;;;;;1.40;1.30;;;;;;;;;;5071699;28;20222;-80
2023/03/25 11:01:42;;;;;;;2.90;1.50;;;;;;;;;;5070721;28;20713;-80
2023/03/25 11:04:11;;;;;;;1.73;1.33;;;;;;;;;;5071569;28;20216;-80
2023/03/25 11:06:39;;;;;;;3.70;1.50;;;;;;;;;;5071088;28;20323;-80
2023/03/25 11:09:23;;;;;;;3.60;1.40;;;;;;;;;;5095423;22;20309;-84
2023/03/25 11:11:50;;;;;;;2.27;2.00;;;;;;;;;;5072566;28;20225;-86
2023/03/25 11:14:21;;;;;;;2.13;1.37;;;;;;;;;;5075422;28;20212;-86
2023/03/25 11:16:52;;;;;;;3.13;1.50;;;;;;;;;;5076684;28;20726;-86
2023/03/25 11:19:21;;;;;;;1.70;1.40;;;;;;;;;;5076775;28;20275;-85
2023/03/25 11:21:49;;;;;;;2.10;1.20;;;;;;;;;;5076390;28;20245;-85
2023/03/25 11:24:19;;;;;;;4.17;1.70;;;;;;;;;;5076448;28;20205;-83
2023/03/25 11:26:51;;;;;;;5.40;1.73;;;;;;;;;;5075678;28;20312;-85
2023/03/25 11:29:19;;;;;;;2.10;1.33;;;;;;;;;;5076073;28;20748;-86
2023/03/25 11:31:56;;;;;;;6.20;1.43;;;;;;;;;;5075840;28;20233;-85
2023/03/25 11:34:23;;;;;;;2.83;1.43;;;;;;;;;;5075815;28;20182;-86
2023/03/25 11:36:54;;;;;;;1.63;1.33;;;;;;;;;;5076577;28;20335;-86
2023/03/25 11:39:27;;;;;;;2.20;1.17;;;;;;;;;;5076623;28;20226;-87
2023/03/25 11:41:55;;;;;;;1.67;1.23;;;;;;;;;;5077468;28;20236;-85
2023/03/25 11:44:24;;;;;;;1.93;1.40;;;;;;;;;;5076752;28;20212;-87
2023/03/25 11:46:52;;;;;;;1.87;1.40;;;;;;;;;;5076030;28;20224;-86
2023/03/25 11:49:21;;;;;;;2.40;1.73;;;;;;;;;;5076863;28;20259;-86
2023/03/25 11:51:48;;;;;;;1.43;1.20;;;;;;;;;;5075562;28;20236;-86
2023/03/25 11:54:17;;;;;;;3.10;1.40;;;;;;;;;;5078499;28;20217;-85
2023/03/25 11:56:45;;;;;;;2.57;1.50;;;;;;;;;;5075451;28;20229;-86
2023/03/25 11:59:22;;;;;;;0.97;0.93;;;;;;;;;;5075840;28;20715;-85
2023/03/25 12:01:51;;;;;;;1.20;1.07;;;;;;;;;;5075393;28;20700;-85
2023/03/25 12:04:19;;;;;;;1.33;1.23;;;;;;;;;;5075873;28;20299;-86
2023/03/25 12:06:53;;;;;;;2.23;1.10;;;;;;;;;;5076086;28;20255;-85
2023/03/25 12:09:21;;;;;;;1.90;0.93;;;;;;;;;;5077735;28;20229;-86
2023/03/25 12:11:52;;;;;;;1.03;0.97;;;;;;;;;;5075258;28;20236;-87
2023/03/25 12:14:26;;;;;;;2.33;0.93;;;;;;;;;;5075779;28;20192;-87
2023/03/25 12:17:00;;;;;;;1.40;1.17;;;;;;;;;;5075203;28;20238;-86
2023/03/25 12:19:33;;;;;;;1.00;0.83;;;;;;;;;;5075977;28;20236;-86
2023/03/25 12:22:07;;;;;;;1.10;1.00;;;;;;;;;;5075425;28;20233;-86
2023/03/25 12:24:47;;;;;;;2.03;1.10;;;;;;;;;;5074962;28;20188;-86
2023/03/25 12:27:19;;;;;;;1.90;1.20;;;;;;;;;;5075196;28;20237;-86
2023/03/25 12:29:53;;;;;;;2.20;1.17;;;;;;;;;;5075236;28;20259;-86
2023/03/25 12:32:28;;;;;;;1.77;1.00;;;;;;;;;;5074926;28;20659;-85
2023/03/25 12:35:00;;;;;;;1.10;1.00;;;;;;;;;;5075490;28;20800;-86
2023/03/25 12:37:31;;;;;;;2.70;1.10;;;;;;;;;;5075200;28;20243;-86
2023/03/25 12:40:08;;;;;;;1.80;1.17;;;;;;;;;;5076318;28;20225;-86
2023/03/25 12:42:40;;;;;;;2.27;1.20;;;;;;;;;;5074731;28;20271;-87
2023/03/25 12:45:19;;;;;;;1.93;1.30;;;;;;;;;;5075765;28;20205;-86
2023/03/25 12:47:49;;;;;;;1.33;0.93;;;;;;;;;;5075061;28;20236;-86
2023/03/25 12:50:21;;;;;;;1.50;1.30;;;;;;;;;;5075063;28;20229;-87
2023/03/25 12:52:51;;;;;;;1.77;1.30;;;;;;;;;;5074279;28;20278;-86
2023/03/25 12:55:25;;;;;;;3.80;1.13;;;;;;;;;;5075024;28;20277;-85
2023/03/25 12:58:00;;;;;;;2.20;1.47;;;;;;;;;;5074513;28;20239;-86
2023/03/25 13:00:33;;;;;;;2.23;1.10;;;;;;;;;;5075739;28;20247;-87
2023/03/25 13:03:27;;;;;;;3.00;1.60;;;;;;;;;;5074011;28;20229;-87
2023/03/25 13:05:56;;;;;;;1.53;1.20;;;;;;;;;;5027682;28;20209;-86
2023/03/25 13:08:25;;;;;;;2.77;1.60;;;;;;;;;;5074182;28;20244;-86
2023/03/25 13:10:57;;;;;;;2.90;1.40;;;;;;;;;;5074558;28;20230;-88
2023/03/25 13:13:25;;;;;;;2.83;1.20;;;;;;;;;;5073989;28;20307;-87
2023/03/25 13:16:00;;;;;;;3.47;1.37;;;;;;;;;;5074543;28;20220;-86
2023/03/25 13:18:29;;;;;;;3.50;1.43;;;;;;;;;;5074534;28;20266;-86
2023/03/25 13:20:59;;;;;;;4.47;1.13;;;;;;;;;;5075310;28;20588;-85
2023/03/25 13:23:28;;;;;;;2.10;1.00;;;;;;;;;;5074974;28;20236;-86
2023/03/25 13:25:57;;;;;;;1.70;1.13;;;;;;;;;;5074737;28;20240;-85
2023/03/25 13:28:27;;;;;;;1.70;1.03;;;;;;;;;;5073628;28;20243;-86
2023/03/25 13:30:56;;;;;;;2.30;1.10;;;;;;;;;;5074179;28;20228;-85
2023/03/25 13:33:25;;;;;;;1.37;0.90;;;;;;;;;;5073254;28;20646;-85
2023/03/25 13:35:54;;;;;;;2.93;1.43;;;;;;;;;;5074244;28;20254;-85
2023/03/25 13:38:24;;;;;;;0.97;0.90;;;;;;;;;;5073568;28;20260;-87
2023/03/25 13:40:54;;;;;;;1.23;1.13;;;;;;;;;;5074787;28;20564;-85
2023/03/25 13:43:27;;;;;;;2.30;1.20;;;;;;;;;;5073167;28;21038;-87
2023/03/25 13:46:00;;;;;;;2.33;1.30;;;;;;;;;;5074731;28;20562;-84
2023/03/25 13:48:30;;;;;;;2.30;1.20;;;;;;;;;;5073352;28;20229;-85
2023/03/25 13:50:58;;;;;;;1.23;1.07;;;;;;;;;;5073782;28;20260;-86
2023/03/25 13:53:28;;;;;;;4.13;1.10;;;;;;;;;;5073021;28;20255;-85
2023/03/25 13:56:02;;;;;;;2.90;1.13;;;;;;;;;;5074246;28;20217;-86
2023/03/25 13:58:42;;;;;;;2.93;1.50;;;;;;;;;;5073132;28;20582;-85
2023/03/25 14:01:27;;;;;;;2.03;1.37;;;;;;;;;;5073630;28;20236;-85
2023/03/25 14:04:14;;;;;;;3.80;1.57;;;;;;;;;;5072853;28;20217;-86
2023/03/25 14:06:48;;;;;;;1.53;1.30;;;;;;;;;;5073317;28;20260;-86
2023/03/25 14:09:34;;;;;;;2.30;2.10;;;;;;;;;;5074883;28;20600;-83
2023/03/25 14:12:04;;;;;;;4.33;1.60;;;;;;;;;;5073181;28;20225;-87
2023/03/25 14:14:34;;;;;;;2.03;1.00;;;;;;;;;;5073835;28;20213;-86
2023/03/25 14:17:04;;;;;;;1.47;1.13;;;;;;;;;;5072817;28;20228;-85
2023/03/25 14:19:32;;;;;;;3.13;1.17;;;;;;;;;;5072677;28;20795;-84
2023/03/25 14:22:00;;;;;;;3.37;1.50;;;;;;;;;;5072284;28;20233;-85
2023/03/25 14:24:28;;;;;;;2.83;1.30;;;;;;;;;;5073284;28;20206;-85
2023/03/25 14:26:56;;;;;;;2.43;1.13;;;;;;;;;;5072808;28;20229;-85
2023/03/25 14:29:30;;;;;;;1.13;1.03;;;;;;;;;;5072991;28;20270;-87
2023/03/25 14:32:05;;;;;;;3.93;1.57;;;;;;;;;;5072234;28;20225;-84
2023/03/25 14:34:33;;;;;;;1.37;1.20;;;;;;;;;;5073057;28;20209;-86
2023/03/25 14:37:29;;;;;;;4.13;1.37;;;;;;;;;;5072668;28;20236;-85
2023/03/25 14:39:58;;;;;;;1.73;1.10;;;;;;;;;;5073202;28;20621;-87
2023/03/25 14:42:28;;;;;;;2.67;1.00;;;;;;;;;;5072093;28;20762;-86
2023/03/25 14:45:15;;;;;;;3.73;1.50;;;;;;;;;;5073392;28;20220;-86
2023/03/25 14:47:53;;;;;;;1.37;1.10;;;;;;;;;;5071923;28;20709;-86
2023/03/25 14:50:34;;;;;;;1.13;1.03;;;;;;;;;;5073258;28;20221;-87
2023/03/25 14:53:03;;;;;;;2.83;1.33;;;;;;;;;;5072201;28;20261;-86
2023/03/25 14:55:31;;;;;;;4.40;1.17;;;;;;;;;;5073722;28;20213;-87
2023/03/25 14:57:59;;;;;;;2.13;1.00;;;;;;;;;;5072740;28;20278;-87
2023/03/25 15:00:29;;;;;;;1.60;1.20;;;;;;;;;;5073337;28;20233;-87